sensor_id;sensor_type;location;lat;lon;timestamp;pressure;altitude;pressure_sealevel;temperature;humidity
76124;BME280;65173;48.066;20.976;2023-07-16T00:00:04;100418.78;;;20.84;100.00
76124;BME280;65173;48.066;20.976;2023-07-16T00:03:09;100418.34;;;20.74;100.00
76124;BME280;65173;48.066;20.976;2023-07-16T00:06:12;100413.69;;;20.75;100.00
76124;BME280;65173;48.066;20.976;2023-07-16T00:09:16;100416.31;;;20.64;100.00
76124;BME280;65173;48.066;20.976;2023-07-16T00:12:20;100413.97;;;20.56;100.00
76124;BME280;65173;48.066;20.976;2023-07-16T00:15:23;100412.47;;;20.65;100.00
76124;BME280;65173;48.066;20.976;2023-07-16T00:18:26;100410.84;;;20.54;100.00
76124;BME280;65173;48.066;20.976;2023-07-16T00:21:32;100414.38;;;20.58;100.00
76124;BME280;65173;48.066;20.976;2023-07-16T00:24:35;100413.91;;;20.49;100.00
76124;BME280;65173;48.066;20.976;2023-07-16T00:27:37;100404.63;;;20.50;100.00
76124;BME280;65173;48.066;20.976;2023-07-16T00:30:41;100401.88;;;20.46;100.00
76124;BME280;65173;48.066;20.976;2023-07-16T00:33:46;100393.75;;;20.46;100.00
76124;BME280;65173;48.066;20.976;2023-07-16T00:36:50;100390.56;;;20.33;100.00
76124;BME280;65173;48.066;20.976;2023-07-16T00:39:54;100396.75;;;20.34;100.00
76124;BME280;65173;48.066;20.976;2023-07-16T00:42:58;100399.06;;;20.32;100.00
76124;BME280;65173;48.066;20.976;2023-07-16T00:46:01;100404.03;;;20.26;100.00
76124;BME280;65173;48.066;20.976;2023-07-16T00:49:05;100404.41;;;20.21;100.00
76124;BME280;65173;48.066;20.976;2023-07-16T00:52:11;100405.09;;;20.15;100.00
76124;BME280;65173;48.066;20.976;2023-07-16T00:55:17;100396.13;;;20.07;100.00
76124;BME280;65173;48.066;20.976;2023-07-16T00:58:20;100396.53;;;20.09;100.00
76124;BME280;65173;48.066;20.976;2023-07-16T01:01:23;100391.13;;;20.09;100.00
76124;BME280;65173;48.066;20.976;2023-07-16T01:04:26;100390.72;;;20.03;100.00
76124;BME280;65173;48.066;20.976;2023-07-16T01:07:33;100391.91;;;20.09;100.00
76124;BME280;65173;48.066;20.976;2023-07-16T01:10:38;100384.53;;;20.03;100.00
76124;BME280;65173;48.066;20.976;2023-07-16T01:13:48;100379.78;;;19.93;100.00
76124;BME280;65173;48.066;20.976;2023-07-16T01:16:52;100369.75;;;19.93;100.00
76124;BME280;65173;48.066;20.976;2023-07-16T01:20:02;100376.34;;;19.96;100.00
76124;BME280;65173;48.066;20.976;2023-07-16T01:26:56;100363.97;;;19.95;100.00
76124;BME280;65173;48.066;20.976;2023-07-16T01:30:04;100358.59;;;19.98;100.00
76124;BME280;65173;48.066;20.976;2023-07-16T01:33:08;100363.22;;;19.98;100.00
76124;BME280;65173;48.066;20.976;2023-07-16T01:36:14;100360.88;;;19.96;100.00
76124;BME280;65173;48.066;20.976;2023-07-16T01:39:18;100357.72;;;19.91;100.00
76124;BME280;65173;48.066;20.976;2023-07-16T01:42:22;100350.78;;;19.90;100.00
76124;BME280;65173;48.066;20.976;2023-07-16T01:45:29;100347.94;;;19.75;100.00
76124;BME280;65173;48.066;20.976;2023-07-16T01:48:37;100350.13;;;19.59;100.00
76124;BME280;65173;48.066;20.976;2023-07-16T01:51:40;100346.19;;;19.53;100.00
76124;BME280;65173;48.066;20.976;2023-07-16T01:54:43;100345.19;;;19.68;100.00
76124;BME280;65173;48.066;20.976;2023-07-16T01:57:47;100342.91;;;19.74;100.00
76124;BME280;65173;48.066;20.976;2023-07-16T02:00:51;100359.53;;;19.76;100.00
76124;BME280;65173;48.066;20.976;2023-07-16T02:03:55;100358.81;;;19.79;100.00
76124;BME280;65173;48.066;20.976;2023-07-16T02:06:58;100354.88;;;19.73;100.00
76124;BME280;65173;48.066;20.976;2023-07-16T02:10:01;100354.88;;;19.73;100.00
76124;BME280;65173;48.066;20.976;2023-07-16T02:13:07;100357.16;;;19.71;100.00
76124;BME280;65173;48.066;20.976;2023-07-16T02:16:10;100359.88;;;19.71;100.00
76124;BME280;65173;48.066;20.976;2023-07-16T02:19:15;100354.50;;;19.74;100.00
76124;BME280;65173;48.066;20.976;2023-07-16T02:22:19;100356.75;;;19.65;100.00
76124;BME280;65173;48.066;20.976;2023-07-16T02:25:22;100357.38;;;19.52;100.00
76124;BME280;65173;48.066;20.976;2023-07-16T02:28:26;100365.88;;;19.54;100.00
76124;BME280;65173;48.066;20.976;2023-07-16T02:31:28;100363.59;;;19.56;100.00
76124;BME280;65173;48.066;20.976;2023-07-16T02:34:32;100362.31;;;19.46;100.00
76124;BME280;65173;48.066;20.976;2023-07-16T02:37:37;100371.00;;;19.29;100.00
76124;BME280;65173;48.066;20.976;2023-07-16T02:40:47;100359.41;;;19.28;100.00
76124;BME280;65173;48.066;20.976;2023-07-16T02:43:59;100372.31;;;19.42;100.00
76124;BME280;65173;48.066;20.976;2023-07-16T02:47:03;100370.13;;;19.21;100.00
76124;BME280;65173;48.066;20.976;2023-07-16T02:50:06;100372.06;;;19.21;100.00
76124;BME280;65173;48.066;20.976;2023-07-16T02:53:10;100370.75;;;19.07;100.00
76124;BME280;65173;48.066;20.976;2023-07-16T02:56:13;100370.22;;;18.95;100.00
76124;BME280;65173;48.066;20.976;2023-07-16T02:59:16;100366.31;;;18.92;100.00
76124;BME280;65173;48.066;20.976;2023-07-16T03:02:19;100365.91;;;18.90;100.00
76124;BME280;65173;48.066;20.976;2023-07-16T03:05:22;100368.19;;;18.88;100.00
76124;BME280;65173;48.066;20.976;2023-07-16T03:08:25;100356.97;;;18.86;100.00
76124;BME280;65173;48.066;20.976;2023-07-16T03:11:32;100360.16;;;18.92;100.00
76124;BME280;65173;48.066;20.976;2023-07-16T03:14:35;100363.25;;;18.94;100.00
76124;BME280;65173;48.066;20.976;2023-07-16T03:17:38;100364.81;;;18.95;100.00
76124;BME280;65173;48.066;20.976;2023-07-16T03:20:42;100362.84;;;18.92;100.00
76124;BME280;65173;48.066;20.976;2023-07-16T03:23:45;100362.44;;;18.90;100.00
76124;BME280;65173;48.066;20.976;2023-07-16T03:26:48;100355.88;;;18.91;100.00
76124;BME280;65173;48.066;20.976;2023-07-16T03:29:53;100368.66;;;18.94;100.00
76124;BME280;65173;48.066;20.976;2023-07-16T03:32:58;100375.88;;;18.86;100.00
76124;BME280;65173;48.066;20.976;2023-07-16T03:36:02;100369.06;;;18.96;100.00
76124;BME280;65173;48.066;20.976;2023-07-16T03:39:05;100372.44;;;18.89;100.00
76124;BME280;65173;48.066;20.976;2023-07-16T03:42:09;100382.94;;;18.94;100.00
76124;BME280;65173;48.066;20.976;2023-07-16T03:45:12;100376.03;;;18.97;100.00
76124;BME280;65173;48.066;20.976;2023-07-16T03:48:15;100379.19;;;19.02;100.00
76124;BME280;65173;48.066;20.976;2023-07-16T03:51:18;100386.88;;;19.00;100.00
76124;BME280;65173;48.066;20.976;2023-07-16T03:54:25;100377.25;;;19.03;100.00
76124;BME280;65173;48.066;20.976;2023-07-16T03:57:28;100392.72;;;19.06;100.00
76124;BME280;65173;48.066;20.976;2023-07-16T04:00:32;100392.41;;;19.11;100.00
76124;BME280;65173;48.066;20.976;2023-07-16T04:03:36;100389.31;;;19.09;100.00
76124;BME280;65173;48.066;20.976;2023-07-16T04:06:42;100392.41;;;19.11;100.00
76124;BME280;65173;48.066;20.976;2023-07-16T04:09:46;100392.25;;;19.30;100.00
76124;BME280;65173;48.066;20.976;2023-07-16T04:12:49;100401.25;;;19.41;100.00
76124;BME280;65173;48.066;20.976;2023-07-16T04:15:52;100399.19;;;19.28;100.00
76124;BME280;65173;48.066;20.976;2023-07-16T04:18:56;100402.97;;;19.23;100.00
76124;BME280;65173;48.066;20.976;2023-07-16T04:21:59;100401.44;;;19.22;100.00
76124;BME280;65173;48.066;20.976;2023-07-16T04:25:03;100401.09;;;19.27;100.00
76124;BME280;65173;48.066;20.976;2023-07-16T04:28:06;100405.94;;;19.45;100.00
76124;BME280;65173;48.066;20.976;2023-07-16T04:31:18;100404.66;;;19.65;100.00
76124;BME280;65173;48.066;20.976;2023-07-16T04:34:21;100399.69;;;19.70;100.00
76124;BME280;65173;48.066;20.976;2023-07-16T04:37:25;100409.47;;;19.82;100.00
76124;BME280;65173;48.066;20.976;2023-07-16T04:40:30;100405.97;;;19.82;100.00
76124;BME280;65173;48.066;20.976;2023-07-16T04:43:33;100411.06;;;19.90;100.00
76124;BME280;65173;48.066;20.976;2023-07-16T04:46:37;100412.00;;;20.05;100.00
76124;BME280;65173;48.066;20.976;2023-07-16T04:49:47;100417.03;;;20.10;100.00
76124;BME280;65173;48.066;20.976;2023-07-16T04:52:51;100413.28;;;20.22;100.00
76124;BME280;65173;48.066;20.976;2023-07-16T04:55:55;100425.06;;;20.43;100.00
76124;BME280;65173;48.066;20.976;2023-07-16T04:58:59;100425.50;;;20.49;100.00
76124;BME280;65173;48.066;20.976;2023-07-16T05:02:05;100434.84;;;20.55;100.00
76124;BME280;65173;48.066;20.976;2023-07-16T05:05:09;100418.66;;;20.66;100.00
76124;BME280;65173;48.066;20.976;2023-07-16T05:08:13;100432.22;;;20.69;100.00
76124;BME280;65173;48.066;20.976;2023-07-16T05:11:15;100434.28;;;20.87;100.00
76124;BME280;65173;48.066;20.976;2023-07-16T05:14:18;100432.03;;;21.03;100.00
76124;BME280;65173;48.066;20.976;2023-07-16T05:17:20;100430.94;;;21.18;100.00
76124;BME280;65173;48.066;20.976;2023-07-16T05:20:24;100437.25;;;21.36;100.00
76124;BME280;65173;48.066;20.976;2023-07-16T05:23:30;100438.00;;;21.30;100.00
76124;BME280;65173;48.066;20.976;2023-07-16T05:26:33;100443.13;;;21.53;100.00
76124;BME280;65173;48.066;20.976;2023-07-16T05:29:37;100443.88;;;21.46;100.00
76124;BME280;65173;48.066;20.976;2023-07-16T05:32:40;100442.38;;;21.70;100.00
76124;BME280;65173;48.066;20.976;2023-07-16T05:35:48;100442.03;;;21.78;100.00
76124;BME280;65173;48.066;20.976;2023-07-16T05:38:54;100442.06;;;21.96;100.00
76124;BME280;65173;48.066;20.976;2023-07-16T05:41:57;100442.53;;;22.20;100.00
76124;BME280;65173;48.066;20.976;2023-07-16T05:45:01;100438.25;;;22.33;100.00
76124;BME280;65173;48.066;20.976;2023-07-16T05:48:04;100439.41;;;22.49;100.00
76124;BME280;65173;48.066;20.976;2023-07-16T05:51:10;100435.50;;;22.61;100.00
76124;BME280;65173;48.066;20.976;2023-07-16T05:54:13;100433.16;;;22.84;100.00
76124;BME280;65173;48.066;20.976;2023-07-16T05:57:18;100435.44;;;23.11;100.00
76124;BME280;65173;48.066;20.976;2023-07-16T06:00:21;100439.28;;;23.20;97.85
76124;BME280;65173;48.066;20.976;2023-07-16T06:03:24;100438.41;;;23.41;100.00
76124;BME280;65173;48.066;20.976;2023-07-16T06:06:31;100446.91;;;23.58;97.83
76124;BME280;65173;48.066;20.976;2023-07-16T06:09:35;100437.16;;;23.64;96.71
76124;BME280;65173;48.066;20.976;2023-07-16T06:12:38;100436.28;;;23.81;94.81
76124;BME280;65173;48.066;20.976;2023-07-16T06:15:41;100436.59;;;23.94;95.17
76124;BME280;65173;48.066;20.976;2023-07-16T06:18:44;100450.06;;;24.11;88.98
76124;BME280;65173;48.066;20.976;2023-07-16T06:21:47;100447.66;;;24.24;94.81
76124;BME280;65173;48.066;20.976;2023-07-16T06:24:50;100439.72;;;24.44;89.04
76124;BME280;65173;48.066;20.976;2023-07-16T06:27:53;100445.72;;;24.69;86.42
76124;BME280;65173;48.066;20.976;2023-07-16T06:30:56;100446.25;;;24.95;87.54
76124;BME280;65173;48.066;20.976;2023-07-16T06:33:59;100447.16;;;25.18;87.11
76124;BME280;65173;48.066;20.976;2023-07-16T06:37:05;100443.09;;;25.30;87.31
76124;BME280;65173;48.066;20.976;2023-07-16T06:40:12;100442.03;;;25.54;81.92
76124;BME280;65173;48.066;20.976;2023-07-16T06:43:16;100439.31;;;25.81;82.47
76124;BME280;65173;48.066;20.976;2023-07-16T06:46:19;100432.81;;;25.99;82.40
76124;BME280;65173;48.066;20.976;2023-07-16T06:49:22;100441.56;;;26.40;83.64
76124;BME280;65173;48.066;20.976;2023-07-16T06:52:25;100443.56;;;27.03;79.59
76124;BME280;65173;48.066;20.976;2023-07-16T06:55:32;100442.28;;;27.07;77.89
76124;BME280;65173;48.066;20.976;2023-07-16T06:58:39;100437.84;;;28.05;78.23
76124;BME280;65173;48.066;20.976;2023-07-16T07:01:42;100436.63;;;27.74;74.28
76124;BME280;65173;48.066;20.976;2023-07-16T07:04:45;100433.97;;;28.19;71.20
76124;BME280;65173;48.066;20.976;2023-07-16T07:07:47;100422.34;;;28.47;74.95
76124;BME280;65173;48.066;20.976;2023-07-16T07:10:50;100417.13;;;28.04;77.21
76124;BME280;65173;48.066;20.976;2023-07-16T07:13:53;100412.84;;;28.81;67.99
76124;BME280;65173;48.066;20.976;2023-07-16T07:16:56;100412.06;;;28.80;64.77
76124;BME280;65173;48.066;20.976;2023-07-16T07:20:00;100406.88;;;29.24;66.46
76124;BME280;65173;48.066;20.976;2023-07-16T07:23:05;100411.91;;;29.67;65.36
76124;BME280;65173;48.066;20.976;2023-07-16T07:26:08;100406.38;;;30.05;64.87
76124;BME280;65173;48.066;20.976;2023-07-16T07:29:11;100413.94;;;30.48;63.70
76124;BME280;65173;48.066;20.976;2023-07-16T07:32:19;100415.31;;;30.44;60.94
76124;BME280;65173;48.066;20.976;2023-07-16T07:35:23;100409.31;;;30.23;59.37
76124;BME280;65173;48.066;20.976;2023-07-16T07:38:26;100416.19;;;30.06;62.73
76124;BME280;65173;48.066;20.976;2023-07-16T07:41:32;100420.69;;;30.00;65.46
76124;BME280;65173;48.066;20.976;2023-07-16T07:44:36;100424.84;;;30.52;62.22
76124;BME280;65173;48.066;20.976;2023-07-16T07:47:38;100421.94;;;30.68;63.78
76124;BME280;65173;48.066;20.976;2023-07-16T07:50:41;100420.94;;;31.49;60.98
76124;BME280;65173;48.066;20.976;2023-07-16T07:53:55;100415.00;;;31.60;57.84
76124;BME280;65173;48.066;20.976;2023-07-16T07:57:01;100422.25;;;32.61;61.01
76124;BME280;65173;48.066;20.976;2023-07-16T08:00:08;100421.50;;;32.88;59.90
76124;BME280;65173;48.066;20.976;2023-07-16T08:03:16;100418.44;;;32.86;61.23
76124;BME280;65173;48.066;20.976;2023-07-16T08:06:26;100418.06;;;33.21;58.22
76124;BME280;65173;48.066;20.976;2023-07-16T08:09:29;100416.06;;;32.12;55.49
76124;BME280;65173;48.066;20.976;2023-07-16T08:12:32;100413.63;;;32.04;54.99
76124;BME280;65173;48.066;20.976;2023-07-16T08:15:35;100414.63;;;32.56;60.78
76124;BME280;65173;48.066;20.976;2023-07-16T08:18:38;100417.81;;;32.82;56.42
76124;BME280;65173;48.066;20.976;2023-07-16T08:21:41;100413.84;;;32.83;54.38
76124;BME280;65173;48.066;20.976;2023-07-16T08:24:44;100409.56;;;33.42;54.77
76124;BME280;65173;48.066;20.976;2023-07-16T08:27:47;100406.44;;;33.07;58.51
76124;BME280;65173;48.066;20.976;2023-07-16T08:30:53;100413.72;;;33.38;60.67
76124;BME280;65173;48.066;20.976;2023-07-16T08:33:57;100416.09;;;33.54;53.15
76124;BME280;65173;48.066;20.976;2023-07-16T08:37:03;100409.03;;;33.62;58.71
76124;BME280;65173;48.066;20.976;2023-07-16T08:40:06;100402.50;;;33.74;52.39
76124;BME280;65173;48.066;20.976;2023-07-16T08:43:09;100403.94;;;33.94;57.99
76124;BME280;65173;48.066;20.976;2023-07-16T08:46:15;100405.09;;;32.85;54.75
76124;BME280;65173;48.066;20.976;2023-07-16T08:49:21;100409.19;;;33.92;53.09
76124;BME280;65173;48.066;20.976;2023-07-16T08:52:26;100408.53;;;34.59;52.75
76124;BME280;65173;48.066;20.976;2023-07-16T08:55:30;100403.78;;;34.21;51.97
76124;BME280;65173;48.066;20.976;2023-07-16T08:58:33;100406.44;;;34.54;56.56
76124;BME280;65173;48.066;20.976;2023-07-16T09:01:38;100410.13;;;33.89;54.69
76124;BME280;65173;48.066;20.976;2023-07-16T09:04:42;100405.66;;;34.39;58.06
76124;BME280;65173;48.066;20.976;2023-07-16T09:07:44;100405.59;;;34.63;51.40
76124;BME280;65173;48.066;20.976;2023-07-16T09:10:54;100398.47;;;34.86;50.63
76124;BME280;65173;48.066;20.976;2023-07-16T09:14:01;100396.91;;;34.70;54.49
76124;BME280;65173;48.066;20.976;2023-07-16T09:17:05;100398.50;;;34.23;50.86
76124;BME280;65173;48.066;20.976;2023-07-16T09:20:08;100400.38;;;34.41;52.49
76124;BME280;65173;48.066;20.976;2023-07-16T09:23:11;100396.47;;;34.86;50.34
76124;BME280;65173;48.066;20.976;2023-07-16T09:26:14;100401.44;;;33.39;52.94
76124;BME280;65173;48.066;20.976;2023-07-16T09:29:18;100397.94;;;34.19;50.52
76124;BME280;65173;48.066;20.976;2023-07-16T09:32:22;100399.56;;;34.50;52.26
76124;BME280;65173;48.066;20.976;2023-07-16T09:35:25;100404.47;;;34.07;50.21
76124;BME280;65173;48.066;20.976;2023-07-16T09:38:29;100407.34;;;34.12;49.44
76124;BME280;65173;48.066;20.976;2023-07-16T09:41:32;100408.09;;;35.20;52.95
76124;BME280;65173;48.066;20.976;2023-07-16T09:44:35;100404.44;;;34.55;49.33
76124;BME280;65173;48.066;20.976;2023-07-16T09:47:39;100402.53;;;33.98;52.00
76124;BME280;65173;48.066;20.976;2023-07-16T09:50:50;100399.72;;;34.99;48.30
76124;BME280;65173;48.066;20.976;2023-07-16T09:53:54;100396.28;;;35.04;57.91
76124;BME280;65173;48.066;20.976;2023-07-16T09:56:59;100406.06;;;35.49;50.02
76124;BME280;65173;48.066;20.976;2023-07-16T10:00:06;100401.94;;;35.60;46.51
76124;BME280;65173;48.066;20.976;2023-07-16T10:03:20;100406.97;;;35.41;47.90
76124;BME280;65173;48.066;20.976;2023-07-16T10:06:23;100390.06;;;35.09;45.07
76124;BME280;65173;48.066;20.976;2023-07-16T10:09:58;100400.81;;;36.07;46.59
76124;BME280;65173;48.066;20.976;2023-07-16T10:13:03;100399.19;;;36.35;48.25
76124;BME280;65173;48.066;20.976;2023-07-16T10:16:06;100393.97;;;35.32;50.07
76124;BME280;65173;48.066;20.976;2023-07-16T10:19:11;100396.66;;;36.37;45.97
76124;BME280;65173;48.066;20.976;2023-07-16T10:22:14;100398.59;;;35.91;46.63
76124;BME280;65173;48.066;20.976;2023-07-16T10:25:37;100394.88;;;36.14;42.30
76124;BME280;65173;48.066;20.976;2023-07-16T10:28:42;100391.72;;;35.86;41.69
76124;BME280;65173;48.066;20.976;2023-07-16T10:31:46;100392.78;;;35.89;43.30
76124;BME280;65173;48.066;20.976;2023-07-16T10:34:50;100381.13;;;36.05;41.73
76124;BME280;65173;48.066;20.976;2023-07-16T10:37:54;100377.72;;;35.40;47.51
76124;BME280;65173;48.066;20.976;2023-07-16T10:40:57;100380.03;;;35.97;46.01
76124;BME280;65173;48.066;20.976;2023-07-16T10:44:00;100388.88;;;36.88;45.87
76124;BME280;65173;48.066;20.976;2023-07-16T10:47:04;100383.59;;;36.43;42.41
76124;BME280;65173;48.066;20.976;2023-07-16T10:50:08;100377.91;;;36.53;41.34
76124;BME280;65173;48.066;20.976;2023-07-16T10:53:12;100379.75;;;36.87;45.50
76124;BME280;65173;48.066;20.976;2023-07-16T10:56:15;100382.97;;;36.54;40.58
76124;BME280;65173;48.066;20.976;2023-07-16T10:59:18;100380.81;;;36.23;40.73
76124;BME280;65173;48.066;20.976;2023-07-16T11:02:23;100374.84;;;35.69;43.72
76124;BME280;65173;48.066;20.976;2023-07-16T11:05:28;100380.03;;;36.89;43.78
76124;BME280;65173;48.066;20.976;2023-07-16T11:08:33;100377.91;;;37.78;37.87
76124;BME280;65173;48.066;20.976;2023-07-16T11:11:36;100379.16;;;37.09;39.32
76124;BME280;65173;48.066;20.976;2023-07-16T11:14:43;100369.81;;;35.53;40.62
76124;BME280;65173;48.066;20.976;2023-07-16T11:17:48;100367.53;;;37.05;43.12
76124;BME280;65173;48.066;20.976;2023-07-16T11:20:53;100362.13;;;36.90;42.40
76124;BME280;65173;48.066;20.976;2023-07-16T11:24:12;100364.41;;;35.99;40.18
76124;BME280;65173;48.066;20.976;2023-07-16T11:27:20;100359.84;;;34.53;43.66
76124;BME280;65173;48.066;20.976;2023-07-16T11:30:24;100358.81;;;34.50;41.99
76124;BME280;65173;48.066;20.976;2023-07-16T11:33:35;100362.38;;;36.66;40.15
76124;BME280;65173;48.066;20.976;2023-07-16T11:36:38;100352.91;;;37.10;40.76
76124;BME280;65173;48.066;20.976;2023-07-16T11:39:40;100358.31;;;36.88;41.32
76124;BME280;65173;48.066;20.976;2023-07-16T11:42:44;100354.91;;;36.78;41.06
76124;BME280;65173;48.066;20.976;2023-07-16T11:45:49;100351.06;;;37.33;41.88
76124;BME280;65173;48.066;20.976;2023-07-16T11:48:52;100356.53;;;36.38;40.99
76124;BME280;65173;48.066;20.976;2023-07-16T11:51:57;100355.28;;;36.19;38.88
76124;BME280;65173;48.066;20.976;2023-07-16T11:55:01;100341.47;;;37.34;37.95
76124;BME280;65173;48.066;20.976;2023-07-16T11:58:07;100342.53;;;37.42;38.00
76124;BME280;65173;48.066;20.976;2023-07-16T12:01:11;100344.13;;;34.88;41.56
76124;BME280;65173;48.066;20.976;2023-07-16T12:04:16;100349.69;;;36.13;45.80
76124;BME280;65173;48.066;20.976;2023-07-16T12:07:31;100346.00;;;36.22;40.90
76124;BME280;65173;48.066;20.976;2023-07-16T12:10:36;100353.56;;;36.22;40.45
76124;BME280;65173;48.066;20.976;2023-07-16T12:13:39;100347.84;;;37.08;43.47
76124;BME280;65173;48.066;20.976;2023-07-16T12:16:42;100340.47;;;37.79;42.22
76124;BME280;65173;48.066;20.976;2023-07-16T12:19:45;100334.00;;;37.57;41.03
76124;BME280;65173;48.066;20.976;2023-07-16T12:22:48;100337.75;;;37.48;37.43
76124;BME280;65173;48.066;20.976;2023-07-16T12:25:51;100338.03;;;36.30;42.84
76124;BME280;65173;48.066;20.976;2023-07-16T12:28:54;100335.50;;;37.52;36.98
76124;BME280;65173;48.066;20.976;2023-07-16T12:31:58;100328.81;;;37.81;36.33
76124;BME280;65173;48.066;20.976;2023-07-16T12:35:01;100337.59;;;36.89;38.69
76124;BME280;65173;48.066;20.976;2023-07-16T12:38:06;100326.13;;;37.12;39.32
76124;BME280;65173;48.066;20.976;2023-07-16T12:41:08;100332.75;;;36.58;39.73
76124;BME280;65173;48.066;20.976;2023-07-16T12:44:12;100327.72;;;37.19;39.44
76124;BME280;65173;48.066;20.976;2023-07-16T12:47:15;100319.47;;;37.36;39.73
76124;BME280;65173;48.066;20.976;2023-07-16T12:50:18;100328.28;;;37.71;38.00
76124;BME280;65173;48.066;20.976;2023-07-16T12:53:22;100327.28;;;36.17;38.83
76124;BME280;65173;48.066;20.976;2023-07-16T12:56:25;100322.88;;;36.82;41.24
76124;BME280;65173;48.066;20.976;2023-07-16T12:59:38;100319.88;;;36.60;39.13
76124;BME280;65173;48.066;20.976;2023-07-16T13:02:41;100316.56;;;36.56;39.69
76124;BME280;65173;48.066;20.976;2023-07-16T13:05:44;100324.75;;;36.39;38.35
76124;BME280;65173;48.066;20.976;2023-07-16T13:08:51;100312.88;;;36.65;42.32
76124;BME280;65173;48.066;20.976;2023-07-16T13:11:54;100312.81;;;36.59;43.02
76124;BME280;65173;48.066;20.976;2023-07-16T13:14:58;100315.84;;;35.69;42.79
76124;BME280;65173;48.066;20.976;2023-07-16T13:18:00;100309.88;;;36.16;43.39
76124;BME280;65173;48.066;20.976;2023-07-16T13:21:03;100305.88;;;36.23;41.18
76124;BME280;65173;48.066;20.976;2023-07-16T13:24:06;100300.63;;;36.51;39.77
76124;BME280;65173;48.066;20.976;2023-07-16T13:27:23;100297.75;;;35.73;41.64
76124;BME280;65173;48.066;20.976;2023-07-16T13:30:29;100294.72;;;35.92;40.87
76124;BME280;65173;48.066;20.976;2023-07-16T13:33:32;100294.13;;;36.08;40.32
76124;BME280;65173;48.066;20.976;2023-07-16T13:36:36;100287.25;;;36.49;47.43
76124;BME280;65173;48.066;20.976;2023-07-16T13:39:39;100294.88;;;36.29;39.74
76124;BME280;65173;48.066;20.976;2023-07-16T13:42:42;100292.31;;;36.25;38.00
76124;BME280;65173;48.066;20.976;2023-07-16T13:45:49;100296.53;;;36.46;40.49
76124;BME280;65173;48.066;20.976;2023-07-16T13:48:52;100292.13;;;36.60;39.19
76124;BME280;65173;48.066;20.976;2023-07-16T13:52:01;100288.59;;;35.88;38.15
76124;BME280;65173;48.066;20.976;2023-07-16T13:55:05;100285.84;;;36.34;41.60
76124;BME280;65173;48.066;20.976;2023-07-16T13:58:09;100281.56;;;36.38;41.41
76124;BME280;65173;48.066;20.976;2023-07-16T14:01:12;100275.44;;;35.82;38.22
76124;BME280;65173;48.066;20.976;2023-07-16T14:04:16;100278.03;;;36.12;42.50
76124;BME280;65173;48.066;20.976;2023-07-16T14:07:19;100279.19;;;36.26;41.01
76124;BME280;65173;48.066;20.976;2023-07-16T14:10:24;100283.50;;;36.06;41.60
76124;BME280;65173;48.066;20.976;2023-07-16T14:13:26;100280.19;;;36.02;41.63
76124;BME280;65173;48.066;20.976;2023-07-16T14:16:29;100282.56;;;35.69;41.68
76124;BME280;65173;48.066;20.976;2023-07-16T14:19:32;100275.72;;;35.64;40.45
76124;BME280;65173;48.066;20.976;2023-07-16T14:22:35;100284.34;;;36.12;42.51
76124;BME280;65173;48.066;20.976;2023-07-16T14:25:38;100270.00;;;35.94;39.74
76124;BME280;65173;48.066;20.976;2023-07-16T14:28:41;100278.75;;;35.46;39.49
76124;BME280;65173;48.066;20.976;2023-07-16T14:31:44;100278.31;;;35.53;44.75
76124;BME280;65173;48.066;20.976;2023-07-16T14:34:48;100277.47;;;36.08;41.48
76124;BME280;65173;48.066;20.976;2023-07-16T14:37:51;100274.78;;;36.19;40.01
76124;BME280;65173;48.066;20.976;2023-07-16T14:40:53;100273.47;;;35.89;39.73
76124;BME280;65173;48.066;20.976;2023-07-16T14:43:56;100274.09;;;35.98;39.36
76124;BME280;65173;48.066;20.976;2023-07-16T14:46:59;100274.66;;;35.41;42.63
76124;BME280;65173;48.066;20.976;2023-07-16T14:50:02;100269.94;;;35.47;40.34
76124;BME280;65173;48.066;20.976;2023-07-16T14:53:08;100272.00;;;35.32;46.80
76124;BME280;65173;48.066;20.976;2023-07-16T14:56:14;100262.28;;;35.22;41.19
76124;BME280;65173;48.066;20.976;2023-07-16T14:59:17;100262.00;;;34.85;41.24
76124;BME280;65173;48.066;20.976;2023-07-16T15:02:21;100265.50;;;35.00;39.51
76124;BME280;65173;48.066;20.976;2023-07-16T15:05:24;100261.38;;;35.10;41.30
76124;BME280;65173;48.066;20.976;2023-07-16T15:08:27;100256.28;;;35.44;41.16
76124;BME280;65173;48.066;20.976;2023-07-16T15:11:30;100259.69;;;35.54;43.57
76124;BME280;65173;48.066;20.976;2023-07-16T15:14:35;100256.91;;;35.33;42.00
76124;BME280;65173;48.066;20.976;2023-07-16T15:17:39;100253.41;;;35.18;43.32
76124;BME280;65173;48.066;20.976;2023-07-16T15:20:42;100255.88;;;35.51;41.50
76124;BME280;65173;48.066;20.976;2023-07-16T15:23:52;100250.69;;;35.03;40.19
76124;BME280;65173;48.066;20.976;2023-07-16T15:26:55;100253.44;;;35.03;41.66
76124;BME280;65173;48.066;20.976;2023-07-16T15:29:57;100244.13;;;34.86;44.11
76124;BME280;65173;48.066;20.976;2023-07-16T15:33:00;100240.59;;;34.86;43.53
76124;BME280;65173;48.066;20.976;2023-07-16T15:36:07;100240.97;;;34.78;46.57
76124;BME280;65173;48.066;20.976;2023-07-16T15:39:10;100233.66;;;34.46;43.85
76124;BME280;65173;48.066;20.976;2023-07-16T15:42:14;100237.81;;;34.27;43.07
76124;BME280;65173;48.066;20.976;2023-07-16T15:45:17;100232.34;;;33.88;43.73
76124;BME280;65173;48.066;20.976;2023-07-16T15:48:21;100237.59;;;33.86;43.10